sensor_id;sensor_type;location;lat;lon;timestamp;pressure;altitude;pressure_sealevel;temperature;humidity
3142;BME280;1581;51.568;6.998;2023-02-04T00:00:38;102428.22;;;8.38;100.00
3142;BME280;1581;51.568;6.998;2023-02-04T00:03:06;102422.09;;;8.47;100.00
3142;BME280;1581;51.568;6.998;2023-02-04T00:05:34;102432.63;;;8.58;100.00
3142;BME280;1581;51.568;6.998;2023-02-04T00:08:03;102441.66;;;8.55;100.00
3142;BME280;1581;51.568;6.998;2023-02-04T00:10:31;102436.44;;;8.35;100.00
3142;BME280;1581;51.568;6.998;2023-02-04T00:12:59;102441.50;;;8.38;100.00
3142;BME280;1581;51.568;6.998;2023-02-04T00:15:27;102431.19;;;8.04;100.00
3142;BME280;1581;51.568;6.998;2023-02-04T00:17:55;102434.03;;;8.32;100.00
3142;BME280;1581;51.568;6.998;2023-02-04T00:20:24;102440.34;;;8.11;100.00
3142;BME280;1581;51.568;6.998;2023-02-04T00:22:52;102437.25;;;8.36;100.00
3142;BME280;1581;51.568;6.998;2023-02-04T00:25:21;102448.69;;;8.27;100.00
3142;BME280;1581;51.568;6.998;2023-02-04T00:27:49;102451.59;;;8.24;100.00
3142;BME280;1581;51.568;6.998;2023-02-04T00:30:17;102458.91;;;8.11;100.00
3142;BME280;1581;51.568;6.998;2023-02-04T00:32:45;102453.28;;;7.84;100.00
3142;BME280;1581;51.568;6.998;2023-02-04T00:35:12;102457.75;;;7.83;100.00
3142;BME280;1581;51.568;6.998;2023-02-04T00:37:40;102459.72;;;8.02;100.00
3142;BME280;1581;51.568;6.998;2023-02-04T00:40:10;102460.03;;;8.08;100.00
3142;BME280;1581;51.568;6.998;2023-02-04T00:42:39;102455.69;;;8.07;100.00
3142;BME280;1581;51.568;6.998;2023-02-04T00:45:08;102457.59;;;8.16;100.00
3142;BME280;1581;51.568;6.998;2023-02-04T00:47:36;102444.16;;;8.18;100.00
3142;BME280;1581;51.568;6.998;2023-02-04T00:50:05;102451.41;;;8.16;100.00
3142;BME280;1581;51.568;6.998;2023-02-04T00:52:32;102457.66;;;8.15;100.00
3142;BME280;1581;51.568;6.998;2023-02-04T00:55:00;102449.66;;;8.26;100.00
3142;BME280;1581;51.568;6.998;2023-02-04T00:57:28;102470.91;;;8.05;100.00
3142;BME280;1581;51.568;6.998;2023-02-04T00:59:57;102455.13;;;8.34;100.00
3142;BME280;1581;51.568;6.998;2023-02-04T01:02:24;102465.56;;;8.16;100.00
3142;BME280;1581;51.568;6.998;2023-02-04T01:04:52;102466.13;;;8.20;100.00
3142;BME280;1581;51.568;6.998;2023-02-04T01:07:20;102465.16;;;8.21;100.00
3142;BME280;1581;51.568;6.998;2023-02-04T01:09:47;102472.84;;;8.03;100.00
3142;BME280;1581;51.568;6.998;2023-02-04T01:12:15;102477.03;;;8.06;100.00
3142;BME280;1581;51.568;6.998;2023-02-04T01:14:43;102482.53;;;8.14;100.00
3142;BME280;1581;51.568;6.998;2023-02-04T01:17:12;102482.88;;;8.20;100.00
3142;BME280;1581;51.568;6.998;2023-02-04T01:19:39;102481.50;;;8.16;100.00
3142;BME280;1581;51.568;6.998;2023-02-04T01:22:07;102487.41;;;8.09;100.00
3142;BME280;1581;51.568;6.998;2023-02-04T01:24:35;102495.38;;;8.09;100.00
3142;BME280;1581;51.568;6.998;2023-02-04T01:27:03;102506.09;;;8.18;100.00
3142;BME280;1581;51.568;6.998;2023-02-04T01:29:30;102494.63;;;8.38;100.00
3142;BME280;1581;51.568;6.998;2023-02-04T01:31:58;102499.00;;;8.49;100.00
3142;BME280;1581;51.568;6.998;2023-02-04T01:34:28;102506.69;;;8.22;100.00
3142;BME280;1581;51.568;6.998;2023-02-04T01:36:56;102508.09;;;8.26;100.00
3142;BME280;1581;51.568;6.998;2023-02-04T01:39:24;102507.28;;;8.14;100.00
3142;BME280;1581;51.568;6.998;2023-02-04T01:41:52;102508.19;;;8.04;100.00
3142;BME280;1581;51.568;6.998;2023-02-04T01:44:19;102514.31;;;8.15;100.00
3142;BME280;1581;51.568;6.998;2023-02-04T01:46:47;102501.53;;;7.89;100.00
3142;BME280;1581;51.568;6.998;2023-02-04T01:49:15;102517.22;;;7.92;100.00
3142;BME280;1581;51.568;6.998;2023-02-04T01:51:45;102525.78;;;8.36;100.00
3142;BME280;1581;51.568;6.998;2023-02-04T01:54:13;102525.66;;;8.17;100.00
3142;BME280;1581;51.568;6.998;2023-02-04T01:56:45;102523.31;;;8.24;100.00
3142;BME280;1581;51.568;6.998;2023-02-04T01:59:16;102516.44;;;8.21;100.00
3142;BME280;1581;51.568;6.998;2023-02-04T02:01:46;102513.97;;;8.29;100.00
3142;BME280;1581;51.568;6.998;2023-02-04T02:04:16;102513.56;;;8.34;100.00
3142;BME280;1581;51.568;6.998;2023-02-04T02:06:51;102527.38;;;8.28;100.00
3142;BME280;1581;51.568;6.998;2023-02-04T02:09:22;102519.00;;;8.23;100.00
3142;BME280;1581;51.568;6.998;2023-02-04T02:11:50;102521.94;;;8.29;100.00
3142;BME280;1581;51.568;6.998;2023-02-04T02:14:17;102525.56;;;8.49;100.00
3142;BME280;1581;51.568;6.998;2023-02-04T02:16:45;102534.41;;;8.58;100.00
3142;BME280;1581;51.568;6.998;2023-02-04T02:19:19;102541.00;;;8.34;100.00
3142;BME280;1581;51.568;6.998;2023-02-04T02:21:56;102538.22;;;8.15;100.00
3142;BME280;1581;51.568;6.998;2023-02-04T02:24:32;102536.22;;;8.28;100.00
3142;BME280;1581;51.568;6.998;2023-02-04T02:27:04;102538.19;;;8.36;100.00
3142;BME280;1581;51.568;6.998;2023-02-04T02:29:33;102548.72;;;8.37;100.00
3142;BME280;1581;51.568;6.998;2023-02-04T02:32:02;102553.81;;;8.50;100.00
3142;BME280;1581;51.568;6.998;2023-02-04T02:34:30;102549.41;;;8.69;100.00
3142;BME280;1581;51.568;6.998;2023-02-04T02:37:00;102553.81;;;8.50;100.00
3142;BME280;1581;51.568;6.998;2023-02-04T02:39:30;102558.94;;;8.42;100.00
3142;BME280;1581;51.568;6.998;2023-02-04T02:41:58;102566.13;;;8.51;100.00
3142;BME280;1581;51.568;6.998;2023-02-04T02:44:26;102562.00;;;8.37;100.00
3142;BME280;1581;51.568;6.998;2023-02-04T02:46:54;102562.34;;;8.53;100.00
3142;BME280;1581;51.568;6.998;2023-02-04T02:49:23;102560.75;;;8.41;100.00
3142;BME280;1581;51.568;6.998;2023-02-04T02:51:52;102554.09;;;8.26;100.00
3142;BME280;1581;51.568;6.998;2023-02-04T02:54:23;102562.00;;;8.37;100.00
3142;BME280;1581;51.568;6.998;2023-02-04T02:56:55;102564.44;;;8.29;100.00
3142;BME280;1581;51.568;6.998;2023-02-04T02:59:24;102563.75;;;8.27;100.00
3142;BME280;1581;51.568;6.998;2023-02-04T03:01:55;102559.66;;;8.23;100.00
3142;BME280;1581;51.568;6.998;2023-02-04T03:04:25;102557.06;;;8.33;100.00
3142;BME280;1581;51.568;6.998;2023-02-04T03:06:54;102562.06;;;8.26;100.00
3142;BME280;1581;51.568;6.998;2023-02-04T03:09:23;102561.66;;;8.31;100.00
3142;BME280;1581;51.568;6.998;2023-02-04T03:11:54;102555.72;;;8.38;100.00
3142;BME280;1581;51.568;6.998;2023-02-04T03:14:22;102569.56;;;8.21;100.00
3142;BME280;1581;51.568;6.998;2023-02-04T03:16:52;102565.84;;;8.13;100.00
3142;BME280;1581;51.568;6.998;2023-02-04T03:19:22;102559.91;;;7.89;100.00
3142;BME280;1581;51.568;6.998;2023-02-04T03:21:50;102573.56;;;7.84;100.00
3142;BME280;1581;51.568;6.998;2023-02-04T03:24:18;102574.63;;;8.24;100.00
3142;BME280;1581;51.568;6.998;2023-02-04T03:26:46;102576.72;;;8.10;100.00
3142;BME280;1581;51.568;6.998;2023-02-04T03:29:15;102585.13;;;8.15;100.00
3142;BME280;1581;51.568;6.998;2023-02-04T03:31:43;102576.28;;;7.94;100.00
3142;BME280;1581;51.568;6.998;2023-02-04T03:34:10;102581.66;;;8.14;100.00
3142;BME280;1581;51.568;6.998;2023-02-04T03:36:38;102577.16;;;8.15;100.00
3142;BME280;1581;51.568;6.998;2023-02-04T03:39:06;102584.44;;;8.13;100.00
3142;BME280;1581;51.568;6.998;2023-02-04T03:41:33;102589.59;;;8.14;100.00
3142;BME280;1581;51.568;6.998;2023-02-04T03:44:01;102599.28;;;8.15;100.00
3142;BME280;1581;51.568;6.998;2023-02-04T03:46:30;102600.03;;;8.06;100.00
3142;BME280;1581;51.568;6.998;2023-02-04T03:48:58;102594.75;;;8.27;100.00
3142;BME280;1581;51.568;6.998;2023-02-04T03:51:25;102605.34;;;8.17;100.00
3142;BME280;1581;51.568;6.998;2023-02-04T03:53:53;102588.84;;;8.03;100.00
3142;BME280;1581;51.568;6.998;2023-02-04T03:56:20;102597.09;;;8.20;100.00
3142;BME280;1581;51.568;6.998;2023-02-04T03:58:48;102595.88;;;8.13;100.00
3142;BME280;1581;51.568;6.998;2023-02-04T04:01:16;102592.34;;;8.24;100.00
3142;BME280;1581;51.568;6.998;2023-02-04T04:03:45;102595.06;;;8.13;100.00
3142;BME280;1581;51.568;6.998;2023-02-04T04:06:12;102595.31;;;8.10;100.00
3142;BME280;1581;51.568;6.998;2023-02-04T04:08:40;102601.94;;;8.15;100.00
3142;BME280;1581;51.568;6.998;2023-02-04T04:11:08;102605.84;;;8.32;100.00
3142;BME280;1581;51.568;6.998;2023-02-04T04:13:37;102607.94;;;7.86;100.00
3142;BME280;1581;51.568;6.998;2023-02-04T04:16:06;102615.81;;;8.19;100.00
3142;BME280;1581;51.568;6.998;2023-02-04T04:18:34;102613.50;;;8.25;100.00
3142;BME280;1581;51.568;6.998;2023-02-04T04:21:04;102624.03;;;8.16;100.00
3142;BME280;1581;51.568;6.998;2023-02-04T04:23:32;102623.09;;;7.95;100.00
3142;BME280;1581;51.568;6.998;2023-02-04T04:26:00;102622.19;;;7.85;100.00
3142;BME280;1581;51.568;6.998;2023-02-04T04:28:28;102631.22;;;7.93;100.00
3142;BME280;1581;51.568;6.998;2023-02-04T04:30:55;102636.81;;;8.11;100.00
3142;BME280;1581;51.568;6.998;2023-02-04T04:33:23;102632.91;;;8.26;100.00
3142;BME280;1581;51.568;6.998;2023-02-04T04:35:51;102631.44;;;8.33;100.00
3142;BME280;1581;51.568;6.998;2023-02-04T04:38:20;102624.59;;;8.51;100.00
3142;BME280;1581;51.568;6.998;2023-02-04T04:40:48;102636.38;;;8.37;100.00
3142;BME280;1581;51.568;6.998;2023-02-04T04:43:15;102642.00;;;8.12;100.00
3142;BME280;1581;51.568;6.998;2023-02-04T04:45:43;102649.75;;;8.36;100.00
3142;BME280;1581;51.568;6.998;2023-02-04T04:48:11;102652.09;;;8.29;100.00
3142;BME280;1581;51.568;6.998;2023-02-04T04:50:39;102645.38;;;8.14;100.00
3142;BME280;1581;51.568;6.998;2023-02-04T04:53:06;102645.38;;;8.25;100.00
3142;BME280;1581;51.568;6.998;2023-02-04T04:55:37;102646.34;;;8.24;100.00
3142;BME280;1581;51.568;6.998;2023-02-04T04:58:08;102653.72;;;8.21;100.00
3142;BME280;1581;51.568;6.998;2023-02-04T05:00:42;102651.06;;;8.21;100.00
3142;BME280;1581;51.568;6.998;2023-02-04T05:03:14;102658.06;;;8.11;100.00
3142;BME280;1581;51.568;6.998;2023-02-04T05:05:42;102653.81;;;8.19;100.00
3142;BME280;1581;51.568;6.998;2023-02-04T05:08:10;102656.13;;;8.13;100.00
3142;BME280;1581;51.568;6.998;2023-02-04T05:10:46;102650.38;;;7.97;100.00
3142;BME280;1581;51.568;6.998;2023-02-04T05:13:14;102659.84;;;8.10;100.00
3142;BME280;1581;51.568;6.998;2023-02-04T05:15:42;102665.84;;;7.92;100.00
3142;BME280;1581;51.568;6.998;2023-02-04T05:18:09;102671.44;;;8.20;100.00
3142;BME280;1581;51.568;6.998;2023-02-04T05:20:37;102669.69;;;7.99;100.00
3142;BME280;1581;51.568;6.998;2023-02-04T05:23:05;102670.28;;;8.02;100.00
3142;BME280;1581;51.568;6.998;2023-02-04T05:25:34;102667.41;;;7.94;100.00
3142;BME280;1581;51.568;6.998;2023-02-04T05:28:08;102679.00;;;7.93;100.00
3142;BME280;1581;51.568;6.998;2023-02-04T05:30:37;102683.38;;;8.15;100.00
3142;BME280;1581;51.568;6.998;2023-02-04T05:33:04;102684.41;;;8.03;100.00
3142;BME280;1581;51.568;6.998;2023-02-04T05:35:32;102674.06;;;7.89;100.00
3142;BME280;1581;51.568;6.998;2023-02-04T05:38:00;102682.25;;;7.97;100.00
3142;BME280;1581;51.568;6.998;2023-02-04T05:40:28;102679.41;;;7.78;100.00
3142;BME280;1581;51.568;6.998;2023-02-04T05:42:55;102680.59;;;7.74;100.00
3142;BME280;1581;51.568;6.998;2023-02-04T05:45:25;102682.63;;;7.92;100.00
3142;BME280;1581;51.568;6.998;2023-02-04T05:47:53;102694.13;;;8.24;100.00
3142;BME280;1581;51.568;6.998;2023-02-04T05:50:20;102698.38;;;8.05;100.00
3142;BME280;1581;51.568;6.998;2023-02-04T05:52:48;102698.88;;;8.10;100.00
3142;BME280;1581;51.568;6.998;2023-02-04T05:55:16;102704.28;;;8.19;100.00
3142;BME280;1581;51.568;6.998;2023-02-04T05:57:44;102703.59;;;8.17;100.00
3142;BME280;1581;51.568;6.998;2023-02-04T06:00:13;102713.03;;;8.42;100.00
3142;BME280;1581;51.568;6.998;2023-02-04T06:02:42;102708.88;;;8.28;100.00
3142;BME280;1581;51.568;6.998;2023-02-04T06:05:10;102716.00;;;8.17;100.00
3142;BME280;1581;51.568;6.998;2023-02-04T06:07:37;102718.03;;;8.24;100.00
3142;BME280;1581;51.568;6.998;2023-02-04T06:10:06;102714.78;;;8.10;100.00
3142;BME280;1581;51.568;6.998;2023-02-04T06:12:34;102718.19;;;8.01;100.00
3142;BME280;1581;51.568;6.998;2023-02-04T06:15:01;102731.34;;;8.02;100.00
3142;BME280;1581;51.568;6.998;2023-02-04T06:17:29;102729.41;;;8.04;100.00
3142;BME280;1581;51.568;6.998;2023-02-04T06:19:58;102727.59;;;8.16;100.00
3142;BME280;1581;51.568;6.998;2023-02-04T06:22:26;102731.84;;;7.96;100.00
3142;BME280;1581;51.568;6.998;2023-02-04T06:24:54;102730.50;;;8.13;100.00
3142;BME280;1581;51.568;6.998;2023-02-04T06:27:21;102728.66;;;8.13;100.00
3142;BME280;1581;51.568;6.998;2023-02-04T06:29:52;102728.72;;;7.91;100.00
3142;BME280;1581;51.568;6.998;2023-02-04T06:32:22;102731.56;;;7.99;100.00
3142;BME280;1581;51.568;6.998;2023-02-04T06:34:53;102733.28;;;8.00;100.00
3142;BME280;1581;51.568;6.998;2023-02-04T06:37:24;102734.09;;;8.12;100.00
3142;BME280;1581;51.568;6.998;2023-02-04T06:39:52;102736.94;;;7.88;100.00
3142;BME280;1581;51.568;6.998;2023-02-04T06:42:19;102727.66;;;7.72;100.00
3142;BME280;1581;51.568;6.998;2023-02-04T06:44:47;102726.44;;;7.65;100.00
3142;BME280;1581;51.568;6.998;2023-02-04T06:47:14;102732.97;;;7.72;100.00
3142;BME280;1581;51.568;6.998;2023-02-04T06:49:42;102735.63;;;7.72;100.00
3142;BME280;1581;51.568;6.998;2023-02-04T06:52:10;102738.88;;;7.86;100.00
3142;BME280;1581;51.568;6.998;2023-02-04T06:54:39;102746.19;;;7.94;100.00
3142;BME280;1581;51.568;6.998;2023-02-04T06:57:07;102744.63;;;8.02;100.00
3142;BME280;1581;51.568;6.998;2023-02-04T06:59:38;102750.81;;;7.92;100.00
3142;BME280;1581;51.568;6.998;2023-02-04T07:02:06;102749.34;;;7.99;100.00
3142;BME280;1581;51.568;6.998;2023-02-04T07:04:34;102745.00;;;7.98;100.00
3142;BME280;1581;51.568;6.998;2023-02-04T07:07:02;102747.88;;;7.95;100.00
3142;BME280;1581;51.568;6.998;2023-02-04T07:09:30;102762.25;;;7.92;100.00
3142;BME280;1581;51.568;6.998;2023-02-04T07:11:59;102758.88;;;7.90;100.00
3142;BME280;1581;51.568;6.998;2023-02-04T07:14:27;102756.13;;;7.92;100.00
3142;BME280;1581;51.568;6.998;2023-02-04T07:16:54;102755.00;;;7.94;100.00
3142;BME280;1581;51.568;6.998;2023-02-04T07:19:24;102761.06;;;7.96;100.00
3142;BME280;1581;51.568;6.998;2023-02-04T07:21:52;102773.00;;;8.02;100.00
3142;BME280;1581;51.568;6.998;2023-02-04T07:24:22;102772.13;;;8.01;100.00
3142;BME280;1581;51.568;6.998;2023-02-04T07:26:50;102778.53;;;7.99;100.00
3142;BME280;1581;51.568;6.998;2023-02-04T07:29:19;102779.03;;;7.93;100.00
3142;BME280;1581;51.568;6.998;2023-02-04T07:31:47;102780.97;;;8.02;100.00
3142;BME280;1581;51.568;6.998;2023-02-04T07:34:17;102790.34;;;8.06;100.00
3142;BME280;1581;51.568;6.998;2023-02-04T07:36:45;102786.38;;;8.00;100.00
3142;BME280;1581;51.568;6.998;2023-02-04T07:39:12;102790.38;;;8.17;100.00
3142;BME280;1581;51.568;6.998;2023-02-04T07:41:40;102785.25;;;8.14;100.00
3142;BME280;1581;51.568;6.998;2023-02-04T07:44:08;102789.53;;;8.16;100.00
3142;BME280;1581;51.568;6.998;2023-02-04T07:46:37;102794.47;;;8.10;100.00
3142;BME280;1581;51.568;6.998;2023-02-04T07:49:05;102791.09;;;8.19;100.00
3142;BME280;1581;51.568;6.998;2023-02-04T07:51:32;102789.34;;;8.40;100.00
3142;BME280;1581;51.568;6.998;2023-02-04T07:54:01;102792.34;;;8.46;100.00
3142;BME280;1581;51.568;6.998;2023-02-04T07:56:28;102790.84;;;8.22;100.00
3142;BME280;1581;51.568;6.998;2023-02-04T07:58:56;102794.31;;;8.33;100.00
3142;BME280;1581;51.568;6.998;2023-02-04T08:01:24;102793.19;;;8.47;100.00
3142;BME280;1581;51.568;6.998;2023-02-04T08:03:53;102796.53;;;8.59;100.00
3142;BME280;1581;51.568;6.998;2023-02-04T08:06:21;102805.25;;;8.82;100.00
3142;BME280;1581;51.568;6.998;2023-02-04T08:08:49;102807.63;;;8.96;100.00
3142;BME280;1581;51.568;6.998;2023-02-04T08:11:16;102811.69;;;9.00;100.00
3142;BME280;1581;51.568;6.998;2023-02-04T08:13:44;102822.34;;;9.20;100.00
3142;BME280;1581;51.568;6.998;2023-02-04T08:16:12;102819.75;;;9.09;100.00
3142;BME280;1581;51.568;6.998;2023-02-04T08:18:40;102831.88;;;9.23;100.00
3142;BME280;1581;51.568;6.998;2023-02-04T08:21:09;102827.78;;;9.19;100.00
3142;BME280;1581;51.568;6.998;2023-02-04T08:23:37;102838.69;;;9.36;100.00
3142;BME280;1581;51.568;6.998;2023-02-04T08:26:08;102843.13;;;9.46;100.00
3142;BME280;1581;51.568;6.998;2023-02-04T08:28:37;102838.38;;;9.50;100.00
3142;BME280;1581;51.568;6.998;2023-02-04T08:31:05;102839.72;;;9.65;100.00
3142;BME280;1581;51.568;6.998;2023-02-04T08:33:37;102857.41;;;9.45;100.00
3142;BME280;1581;51.568;6.998;2023-02-04T08:36:06;102857.97;;;9.49;100.00
3142;BME280;1581;51.568;6.998;2023-02-04T08:38:35;102854.84;;;9.44;100.00
3142;BME280;1581;51.568;6.998;2023-02-04T08:41:10;102856.50;;;9.36;100.00
3142;BME280;1581;51.568;6.998;2023-02-04T08:43:40;102865.50;;;9.44;100.00
3142;BME280;1581;51.568;6.998;2023-02-04T08:46:09;102864.47;;;9.56;100.00
3142;BME280;1581;51.568;6.998;2023-02-04T08:48:37;102871.88;;;9.73;100.00
3142;BME280;1581;51.568;6.998;2023-02-04T08:51:05;102873.28;;;9.77;100.00
3142;BME280;1581;51.568;6.998;2023-02-04T08:53:34;102888.63;;;9.94;100.00
3142;BME280;1581;51.568;6.998;2023-02-04T08:56:05;102885.09;;;9.84;100.00
3142;BME280;1581;51.568;6.998;2023-02-04T08:58:35;102880.28;;;9.98;100.00
3142;BME280;1581;51.568;6.998;2023-02-04T09:01:04;102873.91;;;9.90;100.00
3142;BME280;1581;51.568;6.998;2023-02-04T09:03:32;102874.84;;;10.09;100.00
3142;BME280;1581;51.568;6.998;2023-02-04T09:06:02;102875.47;;;10.13;100.00
3142;BME280;1581;51.568;6.998;2023-02-04T09:08:30;102872.97;;;10.21;100.00
3142;BME280;1581;51.568;6.998;2023-02-04T09:11:00;102883.94;;;10.27;100.00
3142;BME280;1581;51.568;6.998;2023-02-04T09:13:28;102883.34;;;10.24;100.00
3142;BME280;1581;51.568;6.998;2023-02-04T09:15:56;102886.78;;;10.44;100.00
3142;BME280;1581;51.568;6.998;2023-02-04T09:18:26;102890.72;;;10.40;100.00
3142;BME280;1581;51.568;6.998;2023-02-04T09:20:55;102892.00;;;10.55;100.00
3142;BME280;1581;51.568;6.998;2023-02-04T09:23:24;102888.72;;;10.33;100.00
3142;BME280;1581;51.568;6.998;2023-02-04T09:25:51;102897.00;;;10.39;100.00
3142;BME280;1581;51.568;6.998;2023-02-04T09:28:31;102897.69;;;10.32;100.00
3142;BME280;1581;51.568;6.998;2023-02-04T09:30:59;102896.13;;;10.29;100.00
3142;BME280;1581;51.568;6.998;2023-02-04T09:33:27;102898.72;;;10.11;100.00
3142;BME280;1581;51.568;6.998;2023-02-04T09:35:55;102900.41;;;10.41;100.00
3142;BME280;1581;51.568;6.998;2023-02-04T09:38:23;102890.09;;;10.27;100.00
3142;BME280;1581;51.568;6.998;2023-02-04T09:40:55;102897.13;;;9.99;100.00
3142;BME280;1581;51.568;6.998;2023-02-04T09:43:47;102902.09;;;10.42;100.00
3142;BME280;1581;51.568;6.998;2023-02-04T09:46:20;102913.09;;;10.68;100.00
3142;BME280;1581;51.568;6.998;2023-02-04T09:48:48;102913.09;;;10.77;100.00
3142;BME280;1581;51.568;6.998;2023-02-04T09:51:21;102915.75;;;10.28;100.00
3142;BME280;1581;51.568;6.998;2023-02-04T09:53:52;102914.91;;;10.67;100.00
3142;BME280;1581;51.568;6.998;2023-02-04T09:56:27;102920.16;;;10.97;100.00
3142;BME280;1581;51.568;6.998;2023-02-04T09:58:56;102920.31;;;11.05;100.00
3142;BME280;1581;51.568;6.998;2023-02-04T10:01:26;102929.31;;;10.16;100.00
3142;BME280;1581;51.568;6.998;2023-02-04T10:03:57;102932.75;;;10.67;100.00
3142;BME280;1581;51.568;6.998;2023-02-04T10:06:27;102928.31;;;11.05;100.00
3142;BME280;1581;51.568;6.998;2023-02-04T10:08:55;102927.06;;;11.09;100.00
3142;BME280;1581;51.568;6.998;2023-02-04T10:11:25;102929.03;;;11.45;100.00
3142;BME280;1581;51.568;6.998;2023-02-04T10:13:56;102936.09;;;11.55;100.00
3142;BME280;1581;51.568;6.998;2023-02-04T10:16:26;102941.56;;;11.63;100.00
3142;BME280;1581;51.568;6.998;2023-02-04T10:18:57;102940.56;;;11.55;100.00
3142;BME280;1581;51.568;6.998;2023-02-04T10:21:27;102935.47;;;11.33;100.00
3142;BME280;1581;51.568;6.998;2023-02-04T10:24:00;102939.16;;;11.70;100.00
3142;BME280;1581;51.568;6.998;2023-02-04T10:26:30;102941.38;;;11.84;100.00
3142;BME280;1581;51.568;6.998;2023-02-04T10:29:03;102943.22;;;11.74;100.00
3142;BME280;1581;51.568;6.998;2023-02-04T10:31:35;102939.25;;;11.97;100.00
3142;BME280;1581;51.568;6.998;2023-02-04T10:34:06;102949.22;;;12.04;100.00
3142;BME280;1581;51.568;6.998;2023-02-04T10:36:36;102953.34;;;11.80;100.00
3142;BME280;1581;51.568;6.998;2023-02-04T10:39:08;102947.34;;;12.14;100.00
3142;BME280;1581;51.568;6.998;2023-02-04T10:41:37;102947.44;;;11.48;100.00
3142;BME280;1581;51.568;6.998;2023-02-04T10:44:10;102942.13;;;12.22;100.00
3142;BME280;1581;51.568;6.998;2023-02-04T10:46:39;102931.75;;;12.09;100.00
3142;BME280;1581;51.568;6.998;2023-02-04T10:49:18;102934.53;;;12.27;100.00
3142;BME280;1581;51.568;6.998;2023-02-04T10:51:47;102941.31;;;12.12;100.00
3142;BME280;1581;51.568;6.998;2023-02-04T10:54:15;102943.88;;;11.95;100.00
3142;BME280;1581;51.568;6.998;2023-02-04T10:57:07;102947.38;;;12.04;100.00
3142;BME280;1581;51.568;6.998;2023-02-04T10:59:40;102933.69;;;12.53;100.00
3142;BME280;1581;51.568;6.998;2023-02-04T11:02:35;102948.19;;;12.14;100.00
3142;BME280;1581;51.568;6.998;2023-02-04T11:05:09;102948.72;;;12.18;100.00
3142;BME280;1581;51.568;6.998;2023-02-04T11:07:37;102940.16;;;12.51;100.00
3142;BME280;1581;51.568;6.998;2023-02-04T11:10:06;102940.88;;;12.53;100.00
3142;BME280;1581;51.568;6.998;2023-02-04T11:12:41;102941.13;;;12.32;100.00
3142;BME280;1581;51.568;6.998;2023-02-04T11:15:42;102936.69;;;12.41;100.00
3142;BME280;1581;51.568;6.998;2023-02-04T11:18:13;102939.88;;;12.17;100.00
3142;BME280;1581;51.568;6.998;2023-02-04T11:20:55;102937.94;;;12.73;100.00
3142;BME280;1581;51.568;6.998;2023-02-04T11:23:35;102944.06;;;12.83;100.00
3142;BME280;1581;51.568;6.998;2023-02-04T11:26:10;102948.13;;;12.96;100.00
3142;BME280;1581;51.568;6.998;2023-02-04T11:28:54;102944.53;;;13.05;100.00
3142;BME280;1581;51.568;6.998;2023-02-04T11:31:43;102948.44;;;12.57;100.00
3142;BME280;1581;51.568;6.998;2023-02-04T11:34:27;102950.47;;;12.99;100.00
3142;BME280;1581;51.568;6.998;2023-02-04T11:39:58;102944.25;;;12.55;100.00
3142;BME280;1581;51.568;6.998;2023-02-04T11:42:37;102944.75;;;11.95;100.00
3142;BME280;1581;51.568;6.998;2023-02-04T11:45:13;102944.69;;;12.14;100.00
3142;BME280;1581;51.568;6.998;2023-02-04T11:47:43;102949.78;;;12.71;100.00
3142;BME280;1581;51.568;6.998;2023-02-04T11:50:18;102955.78;;;13.09;100.00
3142;BME280;1581;51.568;6.998;2023-02-04T11:52:47;102955.47;;;12.94;100.00
3142;BME280;1581;51.568;6.998;2023-02-04T11:55:15;102950.34;;;13.36;100.00
3142;BME280;1581;51.568;6.998;2023-02-04T11:57:44;102950.34;;;13.53;100.00
3142;BME280;1581;51.568;6.998;2023-02-04T12:00:14;102942.00;;;13.21;100.00
3142;BME280;1581;51.568;6.998;2023-02-04T12:02:47;102938.78;;;12.10;100.00
3142;BME280;1581;51.568;6.998;2023-02-04T12:05:17;102946.03;;;12.37;100.00
3142;BME280;1581;51.568;6.998;2023-02-04T12:07:47;102949.25;;;12.67;100.00
3142;BME280;1581;51.568;6.998;2023-02-04T12:10:24;102948.34;;;12.13;100.00
3142;BME280;1581;51.568;6.998;2023-02-04T12:12:54;102948.28;;;11.86;100.00
3142;BME280;1581;51.568;6.998;2023-02-04T12:15:29;102948.16;;;12.24;100.00
3142;BME280;1581;51.568;6.998;2023-02-04T12:18:06;102944.38;;;12.53;100.00
3142;BME280;1581;51.568;6.998;2023-02-04T12:20:34;102954.91;;;12.91;100.00
3142;BME280;1581;51.568;6.998;2023-02-04T12:23:02;102948.50;;;12.75;100.00
3142;BME280;1581;51.568;6.998;2023-02-04T12:25:33;102947.97;;;13.33;100.00
3142;BME280;1581;51.568;6.998;2023-02-04T12:28:04;102958.84;;;13.49;100.00
3142;BME280;1581;51.568;6.998;2023-02-04T12:30:32;102963.13;;;13.07;100.00
3142;BME280;1581;51.568;6.998;2023-02-04T12:33:01;102963.97;;;13.25;100.00
3142;BME280;1581;51.568;6.998;2023-02-04T12:35:30;102954.31;;;13.49;100.00
3142;BME280;1581;51.568;6.998;2023-02-04T12:37:58;102953.84;;;12.75;100.00
3142;BME280;1581;51.568;6.998;2023-02-04T12:40:27;102956.56;;;12.65;100.00
3142;BME280;1581;51.568;6.998;2023-02-04T12:42:55;102964.75;;;13.17;100.00
3142;BME280;1581;51.568;6.998;2023-02-04T12:45:22;102958.59;;;12.81;100.00
3142;BME280;1581;51.568;6.998;2023-02-04T12:47:50;102967.78;;;12.78;100.00
3142;BME280;1581;51.568;6.998;2023-02-04T12:50:18;102964.81;;;13.25;100.00
3142;BME280;1581;51.568;6.998;2023-02-04T12:52:50;102965.28;;;13.38;100.00
3142;BME280;1581;51.568;6.998;2023-02-04T12:55:18;102968.28;;;13.35;100.00
3142;BME280;1581;51.568;6.998;2023-02-04T12:57:46;102966.59;;;13.34;100.00
3142;BME280;1581;51.568;6.998;2023-02-04T13:00:16;102975.69;;;13.76;100.00
3142;BME280;1581;51.568;6.998;2023-02-04T13:02:44;102967.22;;;13.88;100.00
3142;BME280;1581;51.568;6.998;2023-02-04T13:05:13;102978.91;;;14.22;100.00
3142;BME280;1581;51.568;6.998;2023-02-04T13:07:41;102981.09;;;14.52;100.00
3142;BME280;1581;51.568;6.998;2023-02-04T13:10:12;102979.19;;;14.78;100.00
3142;BME280;1581;51.568;6.998;2023-02-04T13:12:40;102966.75;;;14.77;100.00
3142;BME280;1581;51.568;6.998;2023-02-04T13:15:09;102973.03;;;14.52;100.00
3142;BME280;1581;51.568;6.998;2023-02-04T13:17:37;102966.59;;;15.36;97.73
3142;BME280;1581;51.568;6.998;2023-02-04T13:20:05;102957.00;;;14.68;99.01
3142;BME280;1581;51.568;6.998;2023-02-04T13:22:34;102968.84;;;14.91;99.03